Time;durP1;ratioP1;P1;durP2;ratioP2;P2;SDS_P1;SDS_P2;PMS_P1;PMS_P2;Temp;Humidity;BMP_temperature;BMP_pressure;BME280_temperature;BME280_humidity;BME280_pressure;Samples;Min_cycle;Max_cycle;Signal;HPM_P1;HPM_P2
2022/12/24 00:02:24;;;;;;;11.10;9.60;;;;;;;;;;107444;1269;192066;-35
2022/12/24 00:05:02;;;;;;;11.50;10.00;;;;;;;;;;107376;1273;46058;-35
2022/12/24 00:07:40;;;;;;;12.10;9.70;;;;;;;;;;107575;1283;42847;-35
2022/12/24 00:10:16;;;;;;;11.70;9.90;;;;;;;;;;107563;1282;41667;-35
2022/12/24 00:12:51;;;;;;;10.70;9.20;;;;;;;;;;107540;1275;38538;-35
2022/12/24 00:15:25;;;;;;;11.70;10.00;;;;;;;;;;107566;1283;39831;-36
2022/12/24 00:18:00;;;;;;;14.00;10.10;;;;;;;;;;107571;1282;42627;-35
2022/12/24 00:20:39;;;;;;;11.80;9.00;;;;;;;;;;107564;1282;41647;-35
2022/12/24 00:23:14;;;;;;;11.50;8.80;;;;;;;;;;107506;1269;38529;-35
2022/12/24 00:25:49;;;;;;;10.50;8.90;;;;;;;;;;107551;1283;39875;-35
2022/12/24 00:28:23;;;;;;;10.80;9.00;;;;;;;;;;107575;1280;42913;-35
2022/12/24 00:30:58;;;;;;;11.70;9.20;;;;;;;;;;107549;1282;41587;-35
2022/12/24 00:33:32;;;;;;;10.90;8.90;;;;;;;;;;107593;1267;38493;-36
2022/12/24 00:36:08;;;;;;;11.40;9.10;;;;;;;;;;107613;1273;39898;-35
2022/12/24 00:38:43;;;;;;;11.40;8.80;;;;;;;;;;107648;1279;42357;-35
2022/12/24 00:41:24;;;;;;;11.60;9.70;;;;;;;;;;107617;1280;41888;-35
2022/12/24 00:44:05;;;;;;;12.40;9.90;;;;;;;;;;107572;1283;38356;-35
2022/12/24 00:46:41;;;;;;;10.40;8.70;;;;;;;;;;107667;1279;39770;-35
2022/12/24 00:49:16;;;;;;;11.20;9.50;;;;;;;;;;107628;1276;42380;-36
2022/12/24 00:51:50;;;;;;;10.60;8.60;;;;;;;;;;106836;1267;894843;-35
2022/12/24 00:54:24;;;;;;;11.50;9.60;;;;;;;;;;107585;1267;38672;-36
2022/12/24 00:57:00;;;;;;;10.70;8.60;;;;;;;;;;107512;1280;175816;-35
2022/12/24 00:59:34;;;;;;;11.20;9.20;;;;;;;;;;107638;1273;43881;-35
2022/12/24 01:02:08;;;;;;;10.50;8.60;;;;;;;;;;107620;1273;41563;-34
2022/12/24 01:07:37;;;;;;;10.80;9.30;;;;;;;;;;107649;1280;39575;-35
2022/12/24 01:10:13;;;;;;;12.10;8.80;;;;;;;;;;107607;1279;42398;-35
2022/12/24 01:12:48;;;;;;;11.10;9.20;;;;;;;;;;107640;1279;41401;-35
2022/12/24 01:15:26;;;;;;;9.90;8.00;;;;;;;;;;107602;1270;38605;-35
2022/12/24 01:18:00;;;;;;;10.40;8.90;;;;;;;;;;107616;1283;39481;-36
2022/12/24 01:20:34;;;;;;;10.60;8.70;;;;;;;;;;107644;1280;42503;-35
2022/12/24 01:23:11;;;;;;;11.30;9.40;;;;;;;;;;107656;1270;41738;-35
2022/12/24 01:25:45;;;;;;;11.60;9.60;;;;;;;;;;107585;1270;38376;-35
2022/12/24 01:28:20;;;;;;;10.70;8.80;;;;;;;;;;107645;1268;39915;-36
2022/12/24 01:30:54;;;;;;;11.70;9.10;;;;;;;;;;107610;1282;42567;-35
2022/12/24 01:33:31;;;;;;;10.10;8.20;;;;;;;;;;107610;1280;41507;-35
2022/12/24 01:36:08;;;;;;;11.30;9.00;;;;;;;;;;107970;1276;38392;-35
2022/12/24 01:38:42;;;;;;;11.10;9.30;;;;;;;;;;108003;1263;39907;-36
2022/12/24 01:44:31;;;;;;;10.70;8.10;;;;;;;;;;107976;1273;41467;-36
2022/12/24 01:47:15;;;;;;;11.10;8.50;;;;;;;;;;107944;1270;45452;-35
2022/12/24 01:49:53;;;;;;;10.40;8.40;;;;;;;;;;108023;1276;41166;-35
2022/12/24 01:52:33;;;;;;;10.50;8.70;;;;;;;;;;107996;1273;42527;-35
2022/12/24 01:55:13;;;;;;;10.40;8.60;;;;;;;;;;107949;1272;41995;-35
2022/12/24 01:57:52;;;;;;;12.30;8.90;;;;;;;;;;108017;1266;45943;-36
2022/12/24 02:00:26;;;;;;;11.40;8.40;;;;;;;;;;108012;1263;39786;-35
2022/12/24 02:03:00;;;;;;;10.00;8.30;;;;;;;;;;108004;1275;42113;-35
2022/12/24 02:05:42;;;;;;;10.00;8.50;;;;;;;;;;107814;1261;175799;-35
2022/12/24 02:08:17;;;;;;;10.20;8.10;;;;;;;;;;108008;1273;38593;-35
2022/12/24 02:10:52;;;;;;;11.20;9.10;;;;;;;;;;107232;1264;895230;-36
2022/12/24 02:13:26;;;;;;;11.50;8.90;;;;;;;;;;107338;1263;915120;-35
2022/12/24 02:16:12;;;;;;;11.00;8.70;;;;;;;;;;107945;1260;41579;-36
2022/12/24 02:18:57;;;;;;;10.40;8.60;;;;;;;;;;108025;1267;39862;-35
2022/12/24 02:21:55;;;;;;;9.80;8.20;;;;;;;;;;108020;1271;39778;-35
2022/12/24 02:25:00;;;;;;;10.10;8.30;;;;;;;;;;107953;1268;42453;-35
2022/12/24 02:27:50;;;;;;;11.10;7.80;;;;;;;;;;107979;1264;41585;-35
2022/12/24 02:30:26;;;;;;;10.80;8.30;;;;;;;;;;107985;1264;38599;-36
2022/12/24 02:33:18;;;;;;;11.50;8.80;;;;;;;;;;108014;1276;40103;-35
2022/12/24 02:35:59;;;;;;;11.40;9.00;;;;;;;;;;108003;1273;42328;-35
2022/12/24 02:38:37;;;;;;;11.20;8.50;;;;;;;;;;107959;1264;48286;-35
2022/12/24 02:41:16;;;;;;;10.10;8.50;;;;;;;;;;107937;1269;38514;-35
2022/12/24 02:43:50;;;;;;;10.70;8.60;;;;;;;;;;108018;1263;39785;-36
2022/12/24 02:46:28;;;;;;;10.60;8.20;;;;;;;;;;107864;1273;175787;-35
2022/12/24 02:49:04;;;;;;;10.30;7.90;;;;;;;;;;107892;1264;175823;-35
2022/12/24 02:51:38;;;;;;;11.50;8.90;;;;;;;;;;107989;1274;38984;-35
2022/12/24 02:54:15;;;;;;;10.00;8.40;;;;;;;;;;107977;1273;41047;-36
2022/12/24 02:57:06;;;;;;;12.00;9.00;;;;;;;;;;107983;1273;42161;-35
2022/12/24 03:00:04;;;;;;;10.20;7.80;;;;;;;;;;107991;1274;47515;-35
2022/12/24 03:03:00;;;;;;;11.20;9.10;;;;;;;;;;108019;1273;38479;-35
2022/12/24 03:05:45;;;;;;;10.70;8.20;;;;;;;;;;108003;1263;39950;-36
2022/12/24 03:08:38;;;;;;;10.80;8.50;;;;;;;;;;107968;1277;42615;-35
2022/12/24 03:11:17;;;;;;;10.70;8.40;;;;;;;;;;107992;1273;41578;-36
2022/12/24 03:13:54;;;;;;;12.10;8.90;;;;;;;;;;108040;1263;39762;-35
2022/12/24 03:16:30;;;;;;;10.80;8.30;;;;;;;;;;107353;1267;895071;-35
2022/12/24 03:19:05;;;;;;;10.30;8.20;;;;;;;;;;107944;1263;42513;-36
2022/12/24 03:21:43;;;;;;;10.00;8.20;;;;;;;;;;108048;1267;41442;-36
2022/12/24 03:24:17;;;;;;;10.50;8.10;;;;;;;;;;108009;1264;38379;-36
2022/12/24 03:26:53;;;;;;;11.20;8.50;;;;;;;;;;108005;1263;40352;-35
2022/12/24 03:29:27;;;;;;;10.10;8.10;;;;;;;;;;107969;1263;43630;-35
2022/12/24 03:32:08;;;;;;;10.70;8.70;;;;;;;;;;107987;1276;41173;-35
2022/12/24 03:34:45;;;;;;;10.30;8.40;;;;;;;;;;108014;1276;38370;-35
2022/12/24 03:37:20;;;;;;;10.80;8.30;;;;;;;;;;108008;1274;39690;-35
2022/12/24 03:39:55;;;;;;;9.70;7.80;;;;;;;;;;107925;1263;42373;-36
2022/12/24 03:42:31;;;;;;;10.10;8.40;;;;;;;;;;108030;1274;41452;-36
2022/12/24 03:45:06;;;;;;;9.50;8.00;;;;;;;;;;107990;1263;39767;-36
2022/12/24 03:47:41;;;;;;;10.00;8.10;;;;;;;;;;108050;1263;39706;-35
2022/12/24 03:50:17;;;;;;;9.90;8.10;;;;;;;;;;107937;1260;43675;-36
2022/12/24 03:52:52;;;;;;;10.90;8.20;;;;;;;;;;107984;1273;42563;-35
2022/12/24 03:55:26;;;;;;;10.00;7.60;;;;;;;;;;108010;1260;38390;-35
2022/12/24 03:58:01;;;;;;;9.70;8.00;;;;;;;;;;108024;1260;39794;-35
2022/12/24 04:00:36;;;;;;;9.30;7.90;;;;;;;;;;107945;1273;42338;-36
2022/12/24 04:03:10;;;;;;;9.30;7.60;;;;;;;;;;108027;1265;41565;-35
2022/12/24 04:05:44;;;;;;;10.10;7.20;;;;;;;;;;107992;1263;38421;-35
2022/12/24 04:08:19;;;;;;;9.30;7.20;;;;;;;;;;108013;1276;39961;-35
2022/12/24 04:10:54;;;;;;;8.70;7.30;;;;;;;;;;107929;1263;49212;-35
2022/12/24 04:13:28;;;;;;;9.80;8.20;;;;;;;;;;107974;1264;41448;-35
2022/12/24 04:16:05;;;;;;;9.40;7.50;;;;;;;;;;108030;1267;38491;-35
2022/12/24 04:18:40;;;;;;;9.10;7.40;;;;;;;;;;108013;1263;39700;-35
2022/12/24 04:21:16;;;;;;;9.30;7.40;;;;;;;;;;107881;1273;48149;-35
2022/12/24 04:23:50;;;;;;;9.60;7.60;;;;;;;;;;108047;1267;41464;-35
2022/12/24 04:26:25;;;;;;;9.30;7.60;;;;;;;;;;107992;1272;38578;-35
2022/12/24 04:28:59;;;;;;;9.50;8.10;;;;;;;;;;108027;1263;39788;-36
2022/12/24 04:31:33;;;;;;;8.60;7.00;;;;;;;;;;107926;1263;48692;-36
2022/12/24 04:34:07;;;;;;;9.30;7.50;;;;;;;;;;107991;1263;41360;-35
2022/12/24 04:36:46;;;;;;;8.40;6.70;;;;;;;;;;107998;1267;38481;-36
2022/12/24 04:39:23;;;;;;;8.40;6.90;;;;;;;;;;107991;1272;39741;-36
2022/12/24 04:41:59;;;;;;;9.50;7.50;;;;;;;;;;108006;1272;48996;-35
2022/12/24 04:44:36;;;;;;;9.50;7.00;;;;;;;;;;107993;1263;41501;-35
2022/12/24 04:47:10;;;;;;;8.60;7.10;;;;;;;;;;107989;1263;38534;-35
2022/12/24 04:49:46;;;;;;;9.40;7.50;;;;;;;;;;107967;1267;39847;-35
2022/12/24 04:52:24;;;;;;;9.10;6.60;;;;;;;;;;107998;1275;42425;-35
2022/12/24 04:54:59;;;;;;;8.60;7.10;;;;;;;;;;107998;1263;41436;-35
2022/12/24 04:57:36;;;;;;;9.60;6.70;;;;;;;;;;107994;1272;39681;-35
2022/12/24 05:00:16;;;;;;;8.50;7.00;;;;;;;;;;107971;1260;39755;-35
2022/12/24 05:02:51;;;;;;;7.70;6.40;;;;;;;;;;108000;1272;42536;-36
2022/12/24 05:05:26;;;;;;;8.40;6.90;;;;;;;;;;108011;1273;41462;-35
2022/12/24 05:08:00;;;;;;;8.20;6.30;;;;;;;;;;107998;1271;38623;-36
2022/12/24 05:10:36;;;;;;;8.70;6.90;;;;;;;;;;107972;1263;40436;-36
2022/12/24 05:13:13;;;;;;;8.00;6.70;;;;;;;;;;107999;1275;42418;-35
2022/12/24 05:15:49;;;;;;;8.70;6.70;;;;;;;;;;108006;1272;41464;-35
2022/12/24 05:18:25;;;;;;;9.90;6.90;;;;;;;;;;107980;1273;38642;-34
2022/12/24 05:20:59;;;;;;;8.70;7.00;;;;;;;;;;107970;1259;39971;-35
2022/12/24 05:26:42;;;;;;;8.40;6.30;;;;;;;;;;107716;1267;41402;-36
2022/12/24 05:29:17;;;;;;;9.20;6.50;;;;;;;;;;107955;1275;38511;-35
2022/12/24 05:31:51;;;;;;;8.70;6.70;;;;;;;;;;107939;1263;39769;-36
2022/12/24 05:34:26;;;;;;;8.40;6.50;;;;;;;;;;107997;1273;42621;-35
2022/12/24 05:37:01;;;;;;;9.00;6.70;;;;;;;;;;107994;1275;41397;-35
2022/12/24 05:39:35;;;;;;;9.10;6.60;;;;;;;;;;107993;1269;38692;-35
2022/12/24 05:42:09;;;;;;;8.60;6.90;;;;;;;;;;107961;1263;40040;-35
2022/12/24 05:44:44;;;;;;;8.40;6.40;;;;;;;;;;107992;1263;42448;-35
2022/12/24 05:47:18;;;;;;;8.50;6.30;;;;;;;;;;107996;1264;41343;-35
2022/12/24 05:49:55;;;;;;;9.10;6.40;;;;;;;;;;107993;1273;39840;-35
2022/12/24 05:52:30;;;;;;;7.80;5.90;;;;;;;;;;107957;1272;39915;-35
2022/12/24 05:55:05;;;;;;;8.70;6.80;;;;;;;;;;107981;1273;42415;-35
2022/12/24 05:57:40;;;;;;;8.30;6.50;;;;;;;;;;108020;1263;41495;-35
2022/12/24 06:00:16;;;;;;;7.40;5.70;;;;;;;;;;108026;1259;38548;-35
2022/12/24 06:02:51;;;;;;;7.60;5.80;;;;;;;;;;107998;1263;39774;-36
2022/12/24 06:05:25;;;;;;;8.20;6.10;;;;;;;;;;107865;1273;175761;-35
2022/12/24 06:07:59;;;;;;;6.90;5.40;;;;;;;;;;107985;1272;41384;-35
2022/12/24 06:10:33;;;;;;;7.40;5.80;;;;;;;;;;107973;1272;38616;-35
2022/12/24 06:13:10;;;;;;;8.00;5.90;;;;;;;;;;107975;1263;40245;-35
2022/12/24 06:15:46;;;;;;;7.10;5.60;;;;;;;;;;108009;1273;42371;-35
2022/12/24 06:18:20;;;;;;;7.60;5.70;;;;;;;;;;107877;1265;175743;-34
2022/12/24 06:20:56;;;;;;;7.90;5.60;;;;;;;;;;108010;1263;38549;-34
2022/12/24 06:23:33;;;;;;;7.10;5.80;;;;;;;;;;107944;1263;41057;-34
2022/12/24 06:26:11;;;;;;;7.60;5.60;;;;;;;;;;107979;1263;44669;-34
2022/12/24 06:28:51;;;;;;;7.00;5.80;;;;;;;;;;108006;1263;41324;-34
2022/12/24 06:31:26;;;;;;;8.20;5.70;;;;;;;;;;108001;1263;38620;-34
2022/12/24 06:34:00;;;;;;;7.30;5.30;;;;;;;;;;107964;1264;45320;-34
2022/12/24 06:36:34;;;;;;;7.90;5.50;;;;;;;;;;108022;1272;43800;-34
2022/12/24 06:39:09;;;;;;;7.30;5.60;;;;;;;;;;108008;1272;41333;-34
2022/12/24 06:41:43;;;;;;;7.30;5.60;;;;;;;;;;108012;1275;41105;-34
2022/12/24 06:44:17;;;;;;;6.90;5.00;;;;;;;;;;107565;1263;326431;-34
2022/12/24 06:46:52;;;;;;;7.40;5.10;;;;;;;;;;107842;1263;43770;-34
2022/12/24 06:49:26;;;;;;;7.00;5.40;;;;;;;;;;107849;1264;41290;-34
2022/12/24 06:52:00;;;;;;;8.30;5.80;;;;;;;;;;107833;1276;38697;-34
2022/12/24 06:54:35;;;;;;;7.70;5.90;;;;;;;;;;108087;1263;46823;-34
2022/12/24 06:57:09;;;;;;;7.70;5.50;;;;;;;;;;107993;1273;42711;-34
2022/12/24 06:59:44;;;;;;;7.40;5.80;;;;;;;;;;107975;1271;41646;-34
2022/12/24 07:02:18;;;;;;;8.60;5.20;;;;;;;;;;108032;1274;38655;-34
2022/12/24 07:04:53;;;;;;;7.50;5.60;;;;;;;;;;107940;1263;45780;-34
2022/12/24 07:07:27;;;;;;;8.00;5.40;;;;;;;;;;107994;1272;42465;-34
2022/12/24 07:10:02;;;;;;;9.80;6.20;;;;;;;;;;107991;1264;41509;-34
2022/12/24 07:12:36;;;;;;;8.50;5.80;;;;;;;;;;108004;1272;38655;-34
2022/12/24 07:15:15;;;;;;;8.10;5.90;;;;;;;;;;107937;1260;45358;-34
2022/12/24 07:17:49;;;;;;;6.80;5.50;;;;;;;;;;107977;1274;42429;-34
2022/12/24 07:20:26;;;;;;;7.40;5.70;;;;;;;;;;108006;1263;41705;-34
2022/12/24 07:23:04;;;;;;;7.70;5.60;;;;;;;;;;107981;1263;38612;-34
2022/12/24 07:25:45;;;;;;;7.80;5.20;;;;;;;;;;107965;1263;45917;-34
2022/12/24 07:28:19;;;;;;;7.90;5.20;;;;;;;;;;108001;1263;42324;-34
2022/12/24 07:31:01;;;;;;;8.70;5.70;;;;;;;;;;107991;1272;41358;-35
2022/12/24 07:33:35;;;;;;;7.60;5.60;;;;;;;;;;107912;1260;38737;-35
2022/12/24 07:36:14;;;;;;;7.60;5.30;;;;;;;;;;108008;1263;39519;-35
2022/12/24 07:38:49;;;;;;;7.80;5.70;;;;;;;;;;107971;1263;42512;-35
2022/12/24 07:41:27;;;;;;;7.50;5.80;;;;;;;;;;107894;1273;42668;-36
2022/12/24 07:44:06;;;;;;;8.50;6.00;;;;;;;;;;107953;1273;38704;-35
2022/12/24 07:46:40;;;;;;;7.90;5.50;;;;;;;;;;107985;1272;39975;-35
2022/12/24 07:49:19;;;;;;;8.20;5.90;;;;;;;;;;108031;1263;42444;-36
2022/12/24 07:51:55;;;;;;;7.30;5.60;;;;;;;;;;108037;1267;41413;-36
2022/12/24 07:54:29;;;;;;;7.50;5.50;;;;;;;;;;107900;1264;38629;-35
2022/12/24 07:57:04;;;;;;;7.80;5.60;;;;;;;;;;108007;1263;40060;-35
2022/12/24 07:59:38;;;;;;;7.60;5.30;;;;;;;;;;107996;1263;42931;-36
2022/12/24 08:02:14;;;;;;;8.10;5.50;;;;;;;;;;107986;1271;41524;-35
2022/12/24 08:04:54;;;;;;;7.90;5.40;;;;;;;;;;107987;1263;40197;-35
2022/12/24 08:07:28;;;;;;;7.40;5.10;;;;;;;;;;107890;1272;175757;-35
2022/12/24 08:10:02;;;;;;;7.20;5.30;;;;;;;;;;107866;1272;175771;-35
2022/12/24 08:12:40;;;;;;;8.20;5.50;;;;;;;;;;108001;1272;41476;-35
2022/12/24 08:15:15;;;;;;;7.40;5.70;;;;;;;;;;107952;1263;38732;-35
2022/12/24 08:17:49;;;;;;;7.80;4.80;;;;;;;;;;108020;1260;39898;-35
2022/12/24 08:20:23;;;;;;;7.70;5.20;;;;;;;;;;107890;1260;42522;-35
2022/12/24 08:22:58;;;;;;;7.20;4.90;;;;;;;;;;108008;1273;41439;-36
2022/12/24 08:25:35;;;;;;;10.10;5.50;;;;;;;;;;107953;1263;38920;-35
2022/12/24 08:28:10;;;;;;;7.90;5.60;;;;;;;;;;108010;1271;39815;-35
2022/12/24 08:30:49;;;;;;;8.50;6.50;;;;;;;;;;108007;1272;42659;-35
2022/12/24 08:33:24;;;;;;;7.80;5.30;;;;;;;;;;108006;1263;41413;-35
2022/12/24 08:36:00;;;;;;;8.80;5.10;;;;;;;;;;107974;1260;38420;-35
2022/12/24 08:38:40;;;;;;;9.70;5.50;;;;;;;;;;107996;1272;39973;-35
2022/12/24 08:41:14;;;;;;;7.50;5.40;;;;;;;;;;108021;1263;42631;-35
2022/12/24 08:43:49;;;;;;;7.70;5.20;;;;;;;;;;107970;1263;41330;-35
2022/12/24 08:46:23;;;;;;;7.60;5.40;;;;;;;;;;107974;1263;39749;-34
2022/12/24 08:48:57;;;;;;;7.10;5.00;;;;;;;;;;108008;1268;39751;-34
2022/12/24 08:51:32;;;;;;;7.50;5.30;;;;;;;;;;108019;1276;42248;-35
2022/12/24 08:54:07;;;;;;;7.90;5.30;;;;;;;;;;108000;1273;42679;-34
2022/12/24 08:56:41;;;;;;;8.00;5.70;;;;;;;;;;108000;1260;39839;-34
2022/12/24 08:59:19;;;;;;;8.90;5.60;;;;;;;;;;107997;1263;41031;-34
2022/12/24 09:01:53;;;;;;;8.80;5.50;;;;;;;;;;107974;1273;42657;-34
2022/12/24 09:04:27;;;;;;;7.80;5.70;;;;;;;;;;108015;1264;41367;-34
2022/12/24 09:07:02;;;;;;;8.30;5.40;;;;;;;;;;107959;1263;38521;-36
2022/12/24 09:09:36;;;;;;;9.90;5.10;;;;;;;;;;107989;1273;41159;-36
2022/12/24 09:12:14;;;;;;;7.60;5.40;;;;;;;;;;108036;1263;43707;-35
2022/12/24 09:14:48;;;;;;;9.20;5.30;;;;;;;;;;107998;1263;41309;-35
2022/12/24 09:17:22;;;;;;;8.80;6.00;;;;;;;;;;107956;1263;38555;-35
2022/12/24 09:19:57;;;;;;;8.40;6.20;;;;;;;;;;107977;1273;39929;-35
2022/12/24 09:22:31;;;;;;;8.30;6.10;;;;;;;;;;107990;1268;42435;-35
2022/12/24 09:25:07;;;;;;;10.40;6.40;;;;;;;;;;108016;1263;41567;-34
2022/12/24 09:27:41;;;;;;;9.70;5.90;;;;;;;;;;107960;1264;38698;-36
2022/12/24 09:30:17;;;;;;;7.90;5.90;;;;;;;;;;107977;1263;39777;-35
2022/12/24 09:32:52;;;;;;;8.50;5.80;;;;;;;;;;108006;1269;42682;-35
2022/12/24 09:35:27;;;;;;;10.50;6.20;;;;;;;;;;107862;1275;195903;-35
2022/12/24 09:38:02;;;;;;;8.60;6.20;;;;;;;;;;107940;1263;38548;-34
2022/12/24 09:40:40;;;;;;;8.30;6.20;;;;;;;;;;107987;1263;39764;-34
2022/12/24 09:43:20;;;;;;;8.70;5.90;;;;;;;;;;108027;1273;42613;-34
2022/12/24 09:46:09;;;;;;;8.90;5.80;;;;;;;;;;107830;1269;175718;-35
2022/12/24 09:48:48;;;;;;;7.70;5.60;;;;;;;;;;107963;1273;44689;-35
2022/12/24 09:51:32;;;;;;;7.50;5.40;;;;;;;;;;107866;1265;39973;-35
2022/12/24 09:54:14;;;;;;;10.40;6.40;;;;;;;;;;107988;1269;43819;-35
2022/12/24 09:56:50;;;;;;;11.70;6.60;;;;;;;;;;107924;1260;41481;-35
2022/12/24 09:59:29;;;;;;;11.00;6.90;;;;;;;;;;107998;1263;41040;-35
2022/12/24 10:02:12;;;;;;;11.00;7.30;;;;;;;;;;107994;1263;40951;-36
2022/12/24 10:04:50;;;;;;;12.50;7.70;;;;;;;;;;107972;1272;42526;-35
2022/12/24 10:07:37;;;;;;;12.10;7.60;;;;;;;;;;107943;1263;41630;-35
2022/12/24 10:10:29;;;;;;;12.60;8.00;;;;;;;;;;108004;1267;38589;-35
2022/12/24 10:13:14;;;;;;;11.30;7.10;;;;;;;;;;108009;1273;40022;-35
2022/12/24 10:15:59;;;;;;;13.40;7.70;;;;;;;;;;107992;1263;43228;-35
2022/12/24 10:18:42;;;;;;;13.50;8.10;;;;;;;;;;107994;1263;41681;-35
2022/12/24 10:21:34;;;;;;;11.10;7.90;;;;;;;;;;108048;1263;38613;-35
2022/12/24 10:24:15;;;;;;;13.70;8.60;;;;;;;;;;108031;1263;40033;-35
2022/12/24 10:26:56;;;;;;;12.10;7.50;;;;;;;;;;108036;1275;42600;-35
2022/12/24 10:29:34;;;;;;;10.90;6.90;;;;;;;;;;107825;1266;46910;-35
2022/12/24 10:32:21;;;;;;;12.40;7.70;;;;;;;;;;107825;1272;38724;-36
2022/12/24 10:35:04;;;;;;;10.70;7.40;;;;;;;;;;107820;1266;41206;-36
2022/12/24 10:37:37;;;;;;;11.50;7.30;;;;;;;;;;107801;1260;42728;-35
2022/12/24 10:40:28;;;;;;;13.80;7.70;;;;;;;;;;107946;1266;41475;-35
2022/12/24 10:43:05;;;;;;;12.30;7.80;;;;;;;;;;107914;1264;38635;-35
2022/12/24 10:45:46;;;;;;;12.80;7.70;;;;;;;;;;107954;1274;39973;-36
2022/12/24 10:48:31;;;;;;;10.00;7.00;;;;;;;;;;107935;1264;42655;-35
2022/12/24 10:51:13;;;;;;;10.20;7.30;;;;;;;;;;107930;1272;41778;-35
2022/12/24 10:53:53;;;;;;;11.60;7.20;;;;;;;;;;107934;1264;38794;-36
2022/12/24 10:56:28;;;;;;;10.60;7.00;;;;;;;;;;107948;1272;40137;-36
2022/12/24 10:59:02;;;;;;;10.50;6.50;;;;;;;;;;107896;1275;42632;-35
2022/12/24 11:01:51;;;;;;;10.90;7.20;;;;;;;;;;107932;1274;41759;-35
2022/12/24 11:04:28;;;;;;;11.00;7.20;;;;;;;;;;107926;1269;38588;-36
2022/12/24 11:07:05;;;;;;;11.70;7.20;;;;;;;;;;107954;1275;39961;-35
2022/12/24 11:09:42;;;;;;;9.30;6.50;;;;;;;;;;107898;1264;42608;-36
2022/12/24 11:12:25;;;;;;;10.60;7.40;;;;;;;;;;107920;1266;41605;-36
2022/12/24 11:15:18;;;;;;;9.40;6.50;;;;;;;;;;107970;1272;38604;-35
2022/12/24 11:17:59;;;;;;;9.80;6.30;;;;;;;;;;107921;1273;40378;-41
2022/12/24 11:20:36;;;;;;;10.50;6.60;;;;;;;;;;107907;1263;49552;-35
2022/12/24 11:23:18;;;;;;;12.60;6.90;;;;;;;;;;107849;1269;42026;-34
2022/12/24 11:25:54;;;;;;;10.10;7.00;;;;;;;;;;107820;1272;38663;-34
2022/12/24 11:28:32;;;;;;;10.80;6.90;;;;;;;;;;107818;1273;40136;-33
2022/12/24 11:31:18;;;;;;;10.60;6.70;;;;;;;;;;107894;1265;48733;-34
2022/12/24 11:33:53;;;;;;;9.40;6.90;;;;;;;;;;107988;1263;42984;-34
2022/12/24 11:36:31;;;;;;;10.30;6.60;;;;;;;;;;107913;1264;38654;-34
2022/12/24 11:39:05;;;;;;;9.00;6.60;;;;;;;;;;107923;1259;40058;-34
2022/12/24 11:41:41;;;;;;;8.80;6.40;;;;;;;;;;107934;1272;42610;-34
2022/12/24 11:44:27;;;;;;;8.10;6.10;;;;;;;;;;107846;1275;41699;-34
2022/12/24 11:47:01;;;;;;;9.70;6.50;;;;;;;;;;107979;1276;38508;-35
2022/12/24 11:49:35;;;;;;;9.80;6.50;;;;;;;;;;107908;1264;39574;-34
2022/12/24 11:52:27;;;;;;;9.50;6.90;;;;;;;;;;107844;1273;42710;-34
2022/12/24 11:55:16;;;;;;;11.20;6.60;;;;;;;;;;107949;1273;41515;-35
2022/12/24 11:57:58;;;;;;;9.10;6.30;;;;;;;;;;107972;1269;39260;-34
2022/12/24 12:00:32;;;;;;;8.70;6.40;;;;;;;;;;107846;1266;39904;-33
2022/12/24 12:03:17;;;;;;;9.00;6.20;;;;;;;;;;107909;1262;42536;-34
2022/12/24 12:05:51;;;;;;;8.20;6.10;;;;;;;;;;108017;1263;42877;-34
2022/12/24 12:08:27;;;;;;;10.80;6.80;;;;;;;;;;107911;1274;38640;-34
2022/12/24 12:11:02;;;;;;;8.70;6.10;;;;;;;;;;107902;1264;41248;-35
2022/12/24 12:13:38;;;;;;;8.20;5.70;;;;;;;;;;107883;1273;42847;-35
2022/12/24 12:16:21;;;;;;;7.90;6.40;;;;;;;;;;107854;1276;41931;-35
2022/12/24 12:19:03;;;;;;;9.80;6.70;;;;;;;;;;107871;1272;38604;-34
2022/12/24 12:21:49;;;;;;;9.60;6.30;;;;;;;;;;107904;1263;40575;-35
2022/12/24 12:24:28;;;;;;;8.00;5.90;;;;;;;;;;107972;1264;42646;-33
2022/12/24 12:27:14;;;;;;;9.60;6.00;;;;;;;;;;107938;1272;42789;-33
2022/12/24 12:29:55;;;;;;;7.80;5.70;;;;;;;;;;107907;1274;38852;-32
2022/12/24 12:32:39;;;;;;;9.50;6.30;;;;;;;;;;107961;1275;48198;-33
2022/12/24 12:35:24;;;;;;;9.50;6.90;;;;;;;;;;108028;1274;42516;-33
2022/12/24 12:38:06;;;;;;;9.10;6.50;;;;;;;;;;107961;1266;41504;-33
2022/12/24 12:41:00;;;;;;;9.10;6.40;;;;;;;;;;108074;1260;39972;-33
2022/12/24 12:43:45;;;;;;;;;;;;;;;;;;108027;1269;40581;-33
2022/12/24 12:46:32;;;;;;;9.30;5.90;;;;;;;;;;107960;1263;42958;-33
2022/12/24 12:49:26;;;;;;;10.60;6.60;;;;;;;;;;108060;1259;43094;-33
2022/12/24 12:52:12;;;;;;;8.40;6.10;;;;;;;;;;107910;1266;38880;-34
2022/12/24 12:55:05;;;;;;;9.10;6.40;;;;;;;;;;107987;1265;40427;-33
2022/12/24 12:57:41;;;;;;;9.30;6.00;;;;;;;;;;107931;1268;43830;-34
2022/12/24 13:00:20;;;;;;;9.70;6.20;;;;;;;;;;107907;1276;41564;-34
2022/12/24 13:03:41;;;;;;;10.60;6.80;;;;;;;;;;108122;1263;44235;-34
2022/12/24 13:10:53;;;;;;;10.30;6.70;;;;;;;;;;104264;1317;561010;-34
2022/12/24 13:13:50;;;;;;;11.00;7.50;;;;;;;;;;107500;1273;42389;-34
2022/12/24 13:17:17;;;;;;;10.60;7.50;;;;;;;;;;107513;1282;41619;-35
2022/12/24 13:20:10;;;;;;;;;;;;;;;;;;108198;1259;38850;-35
2022/12/24 13:22:50;;;;;;;9.80;7.00;;;;;;;;;;108078;1269;265930;-35
2022/12/24 13:25:32;;;;;;;12.60;8.00;;;;;;;;;;108451;1270;42552;-35
2022/12/24 13:28:37;;;;;;;11.00;7.50;;;;;;;;;;108391;1254;41639;-34
2022/12/24 13:31:28;;;;;;;9.80;7.40;;;;;;;;;;108430;1254;45809;-35
2022/12/24 13:34:39;;;;;;;10.20;7.30;;;;;;;;;;108594;1257;40238;-34
2022/12/24 13:37:35;;;;;;;10.70;7.30;;;;;;;;;;108483;1267;43727;-34
2022/12/24 13:40:29;;;;;;;9.40;6.90;;;;;;;;;;108418;1265;41442;-35
2022/12/24 13:43:12;;;;;;;12.10;8.30;;;;;;;;;;108471;1260;38641;-35
2022/12/24 13:45:48;;;;;;;12.00;8.40;;;;;;;;;;108425;1266;39823;-35
2022/12/24 13:48:40;;;;;;;11.10;7.60;;;;;;;;;;108424;1263;42532;-35
2022/12/24 13:51:28;;;;;;;9.60;7.20;;;;;;;;;;108453;1256;41709;-35
2022/12/24 13:54:00;;;;;;;10.70;7.90;;;;;;;;;;108497;1257;38765;-34
2022/12/24 13:56:39;;;;;;;11.20;8.20;;;;;;;;;;108499;1269;39961;-35
2022/12/24 13:59:25;;;;;;;12.00;7.90;;;;;;;;;;108444;1265;42643;-35
2022/12/24 14:01:58;;;;;;;12.10;7.30;;;;;;;;;;108322;1259;49010;-34
2022/12/24 14:04:35;;;;;;;10.80;8.30;;;;;;;;;;108380;1259;38372;-34
2022/12/24 14:07:12;;;;;;;11.20;8.20;;;;;;;;;;108388;1266;39800;-34
2022/12/24 14:09:52;;;;;;;10.80;8.00;;;;;;;;;;108399;1270;42555;-34
2022/12/24 14:12:47;;;;;;;10.70;7.50;;;;;;;;;;108365;1258;48459;-34
2022/12/24 14:16:02;;;;;;;10.70;8.20;;;;;;;;;;108460;1258;38644;-35
2022/12/24 14:18:44;;;;;;;10.70;8.30;;;;;;;;;;108438;1258;39986;-34
2022/12/24 14:21:22;;;;;;;10.60;7.80;;;;;;;;;;108323;1259;42547;-34
2022/12/24 14:23:56;;;;;;;12.00;8.00;;;;;;;;;;108321;1267;41790;-34
2022/12/24 14:26:31;;;;;;;10.00;7.90;;;;;;;;;;108295;1259;38879;-34
2022/12/24 14:29:16;;;;;;;11.50;7.80;;;;;;;;;;108335;1267;39937;-34
2022/12/24 14:31:58;;;;;;;10.70;8.20;;;;;;;;;;108442;1256;43989;-33
2022/12/24 14:34:29;;;;;;;10.60;8.90;;;;;;;;;;108429;1257;175670;-33
2022/12/24 14:37:04;;;;;;;11.70;8.00;;;;;;;;;;108512;1257;38708;-34
2022/12/24 14:39:37;;;;;;;12.30;7.50;;;;;;;;;;108541;1269;39983;-36
2022/12/24 14:42:30;;;;;;;12.60;8.10;;;;;;;;;;108373;1259;44138;-36
2022/12/24 14:45:16;;;;;;;12.10;8.50;;;;;;;;;;108357;1255;43541;-39
2022/12/24 14:47:55;;;;;;;10.40;7.70;;;;;;;;;;108365;1267;39094;-38
2022/12/24 14:51:04;;;;;;;11.60;8.20;;;;;;;;;;108378;1256;41638;-36
2022/12/24 14:54:01;;;;;;;11.70;7.90;;;;;;;;;;108375;1253;48918;-37
2022/12/24 14:56:37;;;;;;;10.20;7.20;;;;;;;;;;108439;1266;42272;-37
2022/12/24 14:59:19;;;;;;;12.20;7.60;;;;;;;;;;108417;1256;38978;-36
2022/12/24 15:01:56;;;;;;;10.70;7.90;;;;;;;;;;108322;1264;40280;-36
2022/12/24 15:04:32;;;;;;;10.90;7.60;;;;;;;;;;108515;1266;43215;-36
2022/12/24 15:07:04;;;;;;;10.90;7.70;;;;;;;;;;108557;1256;42268;-36
2022/12/24 15:09:34;;;;;;;10.10;7.50;;;;;;;;;;108524;1263;38906;-34
2022/12/24 15:12:05;;;;;;;9.50;7.50;;;;;;;;;;108380;1254;40424;-34
2022/12/24 15:14:42;;;;;;;11.60;7.80;;;;;;;;;;108465;1258;43155;-34
2022/12/24 15:17:15;;;;;;;10.50;8.00;;;;;;;;;;108999;1266;42200;-34
2022/12/24 15:19:49;;;;;;;;;;;;;;;;;;108406;1259;39075;-34
2022/12/24 15:22:31;;;;;;;13.10;8.40;;;;;;;;;;108323;1253;175711;-34
2022/12/24 15:25:19;;;;;;;11.80;6.80;;;;;;;;;;108457;1257;43072;-34
2022/12/24 15:27:48;;;;;;;12.10;7.70;;;;;;;;;;108473;1265;42519;-34
2022/12/24 15:30:25;;;;;;;12.10;7.40;;;;;;;;;;108506;1265;38925;-33
2022/12/24 15:32:59;;;;;;;10.50;7.00;;;;;;;;;;108422;1265;40243;-33
2022/12/24 15:35:43;;;;;;;;;;;;;;;;;;108468;1266;43467;-33
2022/12/24 15:38:33;;;;;;;11.40;7.80;;;;;;;;;;108453;1267;41656;-33
2022/12/24 15:41:15;;;;;;;10.10;7.00;;;;;;;;;;108503;1260;38950;-33
2022/12/24 15:43:54;;;;;;;11.30;7.50;;;;;;;;;;108444;1257;40306;-33
2022/12/24 15:46:28;;;;;;;12.60;8.00;;;;;;;;;;108492;1266;43055;-33